Time;durP1;ratioP1;P1;durP2;ratioP2;P2;SDS_P1;SDS_P2;PMS_P1;PMS_P2;Temp;Humidity;BMP_temperature;BMP_pressure;BME280_temperature;BME280_humidity;BME280_pressure;Samples;Min_cycle;Max_cycle;Signal;HPM_P1;HPM_P2
2023/05/03 00:01:42;;;;;;;3.05;2.78;;;7.90;99.90;;;;;;5014804;28;20120;-69
2023/05/03 00:04:08;;;;;;;6.03;3.05;;;7.90;99.90;;;;;;5014299;28;20053;-68
2023/05/03 00:06:34;;;;;;;3.47;2.75;;;7.80;99.90;;;;;;5014367;28;20180;-69
2023/05/03 00:08:59;;;;;;;4.07;3.40;;;7.80;99.90;;;;;;4996731;28;20096;-69
2023/05/03 00:11:25;;;;;;;4.38;3.00;;;7.70;99.90;;;;;;5014265;28;20100;-69
2023/05/03 00:13:51;;;;;;;3.90;3.05;;;7.50;99.90;;;;;;4996915;28;20176;-69
2023/05/03 00:16:18;;;;;;;5.38;3.17;;;7.50;99.90;;;;;;5014399;28;20563;-69
2023/05/03 00:18:44;;;;;;;3.67;2.97;;;7.50;99.90;;;;;;5014252;28;20074;-69
2023/05/03 00:21:09;;;;;;;3.03;2.83;;;7.40;99.90;;;;;;5014209;28;20100;-69
2023/05/03 00:23:35;;;;;;;5.90;3.58;;;7.30;99.90;;;;;;4996755;28;20488;-69
2023/05/03 00:26:01;;;;;;;7.35;4.68;;;7.30;99.90;;;;;;5013967;28;20056;-69
2023/05/03 00:28:26;;;;;;;10.85;5.45;;;7.20;99.90;;;;;;5013767;28;20463;-69
2023/05/03 00:30:52;;;;;;;9.52;4.30;;;7.20;99.90;;;;;;5013618;28;20073;-69
2023/05/03 00:33:18;;;;;;;4.00;3.60;;;7.20;99.90;;;;;;5014226;28;20481;-69
2023/05/03 00:35:44;;;;;;;5.53;4.35;;;7.20;99.90;;;;;;5014230;28;20120;-69
2023/05/03 00:38:10;;;;;;;4.70;4.20;;;7.10;99.90;;;;;;4996977;28;20052;-69
2023/05/03 00:40:36;;;;;;;7.38;3.78;;;7.00;99.90;;;;;;5014295;28;20084;-69
2023/05/03 00:43:02;;;;;;;4.82;3.75;;;7.00;99.90;;;;;;5013825;28;20427;-69
2023/05/03 00:45:31;;;;;;;4.50;3.58;;;7.00;99.90;;;;;;5013724;28;20370;-69
2023/05/03 00:47:57;;;;;;;6.05;3.65;;;7.10;99.90;;;;;;4979967;28;20459;-68
2023/05/03 00:50:23;;;;;;;4.53;4.00;;;7.00;99.90;;;;;;5014116;28;20045;-69
2023/05/03 00:52:49;;;;;;;6.97;3.95;;;7.00;99.90;;;;;;5013807;28;20053;-69
2023/05/03 00:55:14;;;;;;;4.47;4.00;;;6.90;99.90;;;;;;5013674;28;20081;-69
2023/05/03 00:57:40;;;;;;;5.97;3.70;;;6.90;99.90;;;;;;4996729;28;20064;-69
2023/05/03 01:00:09;;;;;;;5.35;3.75;;;6.90;99.90;;;;;;5013597;28;20112;-69
2023/05/03 01:02:35;;;;;;;6.85;3.90;;;7.00;99.90;;;;;;5013651;28;20050;-69
2023/05/03 01:05:02;;;;;;;6.28;4.30;;;7.00;99.90;;;;;;5013494;28;20049;-69
2023/05/03 01:07:36;;;;;;;7.13;4.32;;;7.00;99.90;;;;;;5013307;28;20050;-69
2023/05/03 01:10:24;;;;;;;3.90;3.47;;;7.10;99.90;;;;;;5013694;28;20049;-69
2023/05/03 01:12:58;;;;;;;4.32;3.80;;;7.10;99.90;;;;;;5013543;28;20125;-69
2023/05/03 01:15:41;;;;;;;5.47;4.30;;;7.20;99.90;;;;;;5013835;28;20046;-69
2023/05/03 01:18:14;;;;;;;6.63;4.40;;;7.20;99.90;;;;;;5013843;28;20048;-69
2023/05/03 01:20:44;;;;;;;4.35;4.05;;;7.30;99.90;;;;;;5013154;28;20045;-69
2023/05/03 01:23:43;;;;;;;5.38;4.50;;;7.20;99.90;;;;;;5013466;28;20104;-69
2023/05/03 01:26:22;;;;;;;3.70;3.08;;;7.20;99.90;;;;;;5013509;28;20485;-69
2023/05/03 01:28:48;;;;;;;3.67;3.38;;;7.20;99.90;;;;;;4995578;28;20589;-69
2023/05/03 01:31:22;;;;;;;5.18;3.38;;;7.30;99.90;;;;;;4995760;28;20089;-69
2023/05/03 01:33:59;;;;;;;5.15;3.80;;;7.30;99.90;;;;;;5013438;28;20073;-69
2023/05/03 01:36:31;;;;;;;7.93;3.60;;;7.30;99.90;;;;;;5012996;28;20115;-69
2023/05/03 01:38:59;;;;;;;6.00;3.78;;;7.40;99.90;;;;;;5012171;28;20053;-69
2023/05/03 01:41:26;;;;;;;4.80;3.85;;;7.40;99.90;;;;;;4995721;28;20371;-69
2023/05/03 01:43:55;;;;;;;4.18;3.88;;;7.40;99.90;;;;;;5012898;28;20129;-69
2023/05/03 01:46:21;;;;;;;3.83;3.30;;;7.50;99.90;;;;;;4995348;28;20053;-69
2023/05/03 01:48:47;;;;;;;4.97;3.63;;;7.50;99.90;;;;;;4995309;28;20451;-69
2023/05/03 01:51:12;;;;;;;6.10;3.75;;;7.50;99.90;;;;;;5012902;28;20081;-69
2023/05/03 01:53:40;;;;;;;5.80;3.72;;;7.50;99.90;;;;;;4995220;28;20506;-69
2023/05/03 01:56:07;;;;;;;3.22;2.92;;;7.60;99.90;;;;;;4995012;28;20068;-68
2023/05/03 01:58:33;;;;;;;8.48;3.88;;;7.60;99.90;;;;;;5012655;28;20081;-69
2023/05/03 02:00:58;;;;;;;4.38;3.38;;;7.60;99.90;;;;;;4979351;28;20061;-67
2023/05/03 02:03:24;;;;;;;6.18;4.10;;;7.50;99.90;;;;;;5012723;28;20352;-67
2023/05/03 02:05:50;;;;;;;4.63;3.33;;;7.50;99.90;;;;;;5012232;28;20042;-67
2023/05/03 02:08:15;;;;;;;3.95;3.42;;;7.40;99.90;;;;;;4995333;28;20050;-67
2023/05/03 02:10:43;;;;;;;3.63;2.88;;;7.30;99.90;;;;;;5012786;28;20469;-67
2023/05/03 02:13:09;;;;;;;4.30;3.55;;;7.20;99.90;;;;;;5012333;28;20053;-68
2023/05/03 02:15:34;;;;;;;5.53;3.97;;;7.20;99.90;;;;;;4994813;28;20042;-68
2023/05/03 02:18:01;;;;;;;4.40;3.17;;;7.10;99.90;;;;;;4994671;28;20096;-68
2023/05/03 02:20:27;;;;;;;3.58;3.10;;;7.10;99.90;;;;;;5011918;28;20530;-68
2023/05/03 02:22:52;;;;;;;4.80;3.60;;;7.10;99.90;;;;;;5012665;28;20075;-68
2023/05/03 02:25:18;;;;;;;5.25;3.35;;;7.00;99.90;;;;;;5012854;28;20100;-67
2023/05/03 02:27:44;;;;;;;5.40;3.33;;;7.00;99.90;;;;;;5012197;28;20077;-68
2023/05/03 02:30:10;;;;;;;3.50;3.08;;;7.00;99.90;;;;;;5011865;28;20053;-68
2023/05/03 02:32:36;;;;;;;3.13;2.90;;;6.90;99.90;;;;;;5012524;28;20061;-68
2023/05/03 02:35:01;;;;;;;5.20;3.92;;;6.90;99.90;;;;;;4978734;28;20050;-68
2023/05/03 02:37:27;;;;;;;5.22;3.80;;;6.70;99.90;;;;;;5012163;28;20462;-68
2023/05/03 02:39:53;;;;;;;5.32;3.90;;;6.60;99.90;;;;;;5012032;28;20046;-68
2023/05/03 02:42:18;;;;;;;4.47;3.97;;;6.50;99.90;;;;;;5012353;28;20046;-68
2023/05/03 02:44:45;;;;;;;4.22;3.17;;;6.30;99.90;;;;;;5012171;28;20041;-68
2023/05/03 02:47:10;;;;;;;7.50;3.95;;;6.30;99.90;;;;;;4994863;28;20096;-68
2023/05/03 02:49:36;;;;;;;3.78;3.47;;;6.30;99.90;;;;;;5012735;28;20058;-67
2023/05/03 02:52:02;;;;;;;4.13;3.72;;;6.30;99.90;;;;;;5015268;28;20523;-68
2023/05/03 02:54:28;;;;;;;3.65;3.20;;;6.30;99.90;;;;;;5016142;28;20042;-68
2023/05/03 02:56:53;;;;;;;3.88;3.38;;;6.40;99.90;;;;;;4998841;28;20049;-68
2023/05/03 02:59:19;;;;;;;4.30;3.70;;;6.50;99.90;;;;;;5015752;28;20381;-68
2023/05/03 03:01:45;;;;;;;5.70;3.25;;;6.40;99.90;;;;;;4998412;28;20076;-68
2023/05/03 03:04:11;;;;;;;4.65;3.20;;;6.50;99.90;;;;;;5015789;28;20068;-68
2023/05/03 03:06:37;;;;;;;5.10;4.00;;;6.40;99.90;;;;;;5015620;28;20487;-68
2023/05/03 03:09:03;;;;;;;4.72;3.47;;;6.30;99.90;;;;;;5015875;28;20426;-68
2023/05/03 03:11:29;;;;;;;4.28;3.40;;;6.20;99.90;;;;;;5015514;28;20064;-68
2023/05/03 03:13:55;;;;;;;3.00;2.70;;;6.20;99.90;;;;;;5015015;28;20459;-68
2023/05/03 03:16:20;;;;;;;3.63;3.33;;;6.20;99.90;;;;;;5015614;28;20132;-68
2023/05/03 03:18:46;;;;;;;4.47;3.60;;;7.20;99.90;;;;;;5014948;28;20081;-68
2023/05/03 03:21:12;;;;;;;6.00;3.50;;;6.50;99.90;;;;;;4998055;28;20050;-68
2023/05/03 03:23:37;;;;;;;5.68;3.78;;;6.50;99.90;;;;;;5015635;28;20439;-68
2023/05/03 03:26:03;;;;;;;5.68;4.28;;;6.40;99.90;;;;;;5015367;28;20041;-68
2023/05/03 03:28:29;;;;;;;3.75;3.30;;;6.30;99.90;;;;;;5015175;28;20073;-67
2023/05/03 03:30:54;;;;;;;4.47;3.60;;;6.40;99.90;;;;;;5015775;28;20068;-68
2023/05/03 03:33:20;;;;;;;4.38;3.90;;;6.40;99.90;;;;;;4997436;28;20057;-68
2023/05/03 03:35:46;;;;;;;3.72;3.42;;;6.50;99.90;;;;;;5014967;28;20050;-68
2023/05/03 03:38:12;;;;;;;3.45;3.15;;;6.50;99.90;;;;;;5015449;28;20050;-68
2023/05/03 03:40:38;;;;;;;3.80;3.42;;;6.60;99.90;;;;;;5014679;28;20486;-68
2023/05/03 03:43:03;;;;;;;3.50;3.20;;;6.70;99.90;;;;;;5015309;28;20060;-68
2023/05/03 03:45:29;;;;;;;4.03;3.33;;;6.70;99.90;;;;;;5014740;28;20046;-67
2023/05/03 03:47:56;;;;;;;6.13;4.00;;;6.70;99.90;;;;;;5014813;28;20046;-68
2023/05/03 03:50:24;;;;;;;3.95;3.17;;;6.40;99.90;;;;;;4997079;28;20427;-68
2023/05/03 03:52:49;;;;;;;4.13;3.65;;;6.50;99.90;;;;;;4997653;28;20052;-68
2023/05/03 03:55:15;;;;;;;8.00;4.45;;;6.60;99.90;;;;;;5014867;28;20049;-68
2023/05/03 03:57:41;;;;;;;3.65;3.10;;;6.60;99.90;;;;;;5014611;28;20046;-68
2023/05/03 04:00:09;;;;;;;3.70;2.90;;;6.70;99.90;;;;;;5014633;28;20103;-68
2023/05/03 04:02:34;;;;;;;4.55;3.33;;;6.80;99.90;;;;;;5013726;28;20471;-68
2023/05/03 04:05:00;;;;;;;7.22;3.35;;;6.80;99.90;;;;;;5014698;28;20184;-68
2023/05/03 04:07:26;;;;;;;4.18;2.95;;;6.80;99.90;;;;;;4997851;28;20049;-68
2023/05/03 04:09:52;;;;;;;3.88;2.58;;;6.80;99.90;;;;;;5014325;28;20077;-68
2023/05/03 04:12:18;;;;;;;3.63;3.15;;;6.70;99.90;;;;;;4997704;28;20103;-67
2023/05/03 04:14:44;;;;;;;4.25;3.00;;;6.80;99.90;;;;;;5014296;28;20099;-68
2023/05/03 04:17:10;;;;;;;3.58;3.25;;;6.80;99.90;;;;;;4997054;28;20057;-68
2023/05/03 04:19:37;;;;;;;4.63;3.30;;;6.80;99.90;;;;;;5014760;28;20173;-68
2023/05/03 04:22:03;;;;;;;4.75;3.10;;;6.80;99.90;;;;;;5014147;28;20057;-68
2023/05/03 04:24:29;;;;;;;3.58;3.28;;;6.80;99.90;;;;;;5013948;28;20371;-68
2023/05/03 04:26:55;;;;;;;6.38;3.28;;;6.80;99.90;;;;;;5014086;28;20507;-68
2023/05/03 04:29:21;;;;;;;5.50;3.70;;;6.80;99.90;;;;;;4996575;28;20085;-68
2023/05/03 04:31:47;;;;;;;2.90;2.60;;;6.80;99.90;;;;;;5014147;28;20089;-68
2023/05/03 04:34:15;;;;;;;3.58;2.97;;;6.70;99.90;;;;;;5013962;28;20484;-68
2023/05/03 04:36:41;;;;;;;3.60;3.30;;;6.70;99.90;;;;;;5013825;28;20046;-68
2023/05/03 04:39:10;;;;;;;4.20;3.30;;;6.70;99.90;;;;;;5013788;28;20053;-68
2023/05/03 04:41:35;;;;;;;4.00;2.90;;;6.70;99.90;;;;;;5013638;28;20509;-68
2023/05/03 04:44:01;;;;;;;5.10;3.00;;;6.70;99.90;;;;;;5013761;28;20121;-68
2023/05/03 04:46:27;;;;;;;4.35;3.15;;;6.60;99.90;;;;;;5013539;28;20072;-68
2023/05/03 04:48:53;;;;;;;4.55;4.00;;;6.70;99.90;;;;;;4996518;28;20053;-68
2023/05/03 04:51:18;;;;;;;3.35;2.92;;;6.70;99.90;;;;;;5013728;28;20419;-68
2023/05/03 04:53:44;;;;;;;3.55;2.92;;;6.70;99.90;;;;;;4995843;28;20041;-68
2023/05/03 04:56:10;;;;;;;4.97;3.00;;;6.70;99.90;;;;;;5013261;28;20112;-68
2023/05/03 04:58:35;;;;;;;5.85;2.92;;;6.80;99.90;;;;;;5013278;28;20520;-68
2023/05/03 05:01:02;;;;;;;4.38;3.17;;;6.80;99.90;;;;;;5013256;28;20072;-69
2023/05/03 05:03:30;;;;;;;3.38;2.53;;;6.90;99.90;;;;;;5013679;28;20048;-68
2023/05/03 05:05:55;;;;;;;5.35;2.92;;;7.00;99.90;;;;;;4995713;28;20049;-67
2023/05/03 05:08:21;;;;;;;2.92;2.60;;;7.00;99.90;;;;;;5013186;28;20049;-68
2023/05/03 05:10:47;;;;;;;4.28;3.03;;;7.10;99.90;;;;;;5012971;28;20057;-67
2023/05/03 05:13:13;;;;;;;2.70;2.50;;;7.20;99.90;;;;;;5012906;28;20045;-67
2023/05/03 05:15:39;;;;;;;5.00;2.92;;;7.20;99.90;;;;;;5013117;28;20046;-68
2023/05/03 05:18:04;;;;;;;5.47;2.80;;;7.30;99.90;;;;;;5013109;28;20048;-67
2023/05/03 05:20:30;;;;;;;5.97;2.85;;;7.30;99.90;;;;;;5013087;28;20544;-67
2023/05/03 05:22:56;;;;;;;6.15;3.00;;;7.40;99.90;;;;;;4995810;28;20395;-67
2023/05/03 05:25:21;;;;;;;6.47;2.55;;;7.50;99.90;;;;;;5012599;28;20475;-67
2023/05/03 05:27:47;;;;;;;5.13;3.17;;;7.50;99.90;;;;;;4995085;28;20052;-67
2023/05/03 05:30:13;;;;;;;4.30;3.10;;;7.60;99.90;;;;;;5012613;28;20058;-68
2023/05/03 05:32:39;;;;;;;4.28;2.58;;;7.60;99.90;;;;;;5013306;28;20062;-67
2023/05/03 05:35:05;;;;;;;4.25;2.75;;;7.70;99.90;;;;;;5013153;28;20044;-67
2023/05/03 05:37:31;;;;;;;6.35;2.72;;;7.60;99.90;;;;;;5012774;28;20099;-67
2023/05/03 05:39:56;;;;;;;8.40;2.20;;;7.60;99.90;;;;;;5012403;28;20120;-67
2023/05/03 05:42:22;;;;;;;2.97;2.67;;;7.70;99.90;;;;;;5012867;28;20061;-67
2023/05/03 05:44:48;;;;;;;2.70;2.40;;;7.80;99.90;;;;;;5013413;28;20046;-67
2023/05/03 05:47:13;;;;;;;3.55;2.38;;;7.80;99.90;;;;;;5012475;28;20050;-67
2023/05/03 05:49:39;;;;;;;2.58;2.00;;;7.90;99.90;;;;;;5012631;28;20081;-67
2023/05/03 05:52:05;;;;;;;3.80;2.22;;;8.10;99.90;;;;;;5012936;28;20081;-67
2023/05/03 05:54:30;;;;;;;5.18;2.40;;;8.10;99.90;;;;;;4979247;28;20061;-65
2023/05/03 05:56:57;;;;;;;5.82;2.67;;;8.20;99.90;;;;;;5012370;28;20470;-67
2023/05/03 05:59:23;;;;;;;3.08;2.20;;;8.30;99.90;;;;;;5012651;28;20092;-67
2023/05/03 06:01:49;;;;;;;3.92;2.35;;;8.30;99.90;;;;;;5012677;28;20521;-67
2023/05/03 06:04:15;;;;;;;3.25;2.03;;;8.40;99.90;;;;;;5012847;28;20122;-67
2023/05/03 06:06:41;;;;;;;2.47;2.05;;;8.40;99.90;;;;;;5012389;28;20088;-67
2023/05/03 06:09:07;;;;;;;2.35;2.15;;;8.50;99.90;;;;;;5012455;28;20053;-67
2023/05/03 06:11:37;;;;;;;4.60;2.58;;;8.60;99.90;;;;;;5012232;28;20125;-67
2023/05/03 06:14:03;;;;;;;3.97;2.35;;;8.60;99.90;;;;;;5012359;28;20046;-67
2023/05/03 06:16:29;;;;;;;2.92;2.63;;;8.70;99.90;;;;;;5012873;28;20052;-67
2023/05/03 06:18:55;;;;;;;2.78;2.40;;;8.70;99.90;;;;;;5012945;28;20065;-67
2023/05/03 06:21:21;;;;;;;5.53;1.95;;;8.80;99.90;;;;;;4995057;28;20053;-67
2023/05/03 06:23:47;;;;;;;4.25;2.75;;;8.80;99.90;;;;;;5012196;28;20050;-68
2023/05/03 06:26:12;;;;;;;3.67;2.50;;;8.90;99.90;;;;;;5014142;28;20050;-68
2023/05/03 06:28:38;;;;;;;4.72;2.50;;;8.90;99.90;;;;;;5016610;28;20042;-68
2023/05/03 06:31:04;;;;;;;4.53;2.10;;;9.00;99.90;;;;;;5016074;28;20413;-68
2023/05/03 06:33:29;;;;;;;5.97;2.88;;;9.10;99.90;;;;;;5016113;28;20085;-67
2023/05/03 06:35:55;;;;;;;3.35;2.80;;;9.10;99.90;;;;;;5016433;28;20081;-68
2023/05/03 06:38:21;;;;;;;3.00;2.20;;;9.10;99.90;;;;;;5016586;28;20057;-68
2023/05/03 06:40:48;;;;;;;3.05;2.20;;;9.20;99.90;;;;;;5016551;28;20099;-68
2023/05/03 06:43:14;;;;;;;1.98;1.88;;;9.20;99.90;;;;;;4998707;28;20462;-68
2023/05/03 06:45:42;;;;;;;3.25;2.30;;;9.20;99.90;;;;;;5015943;28;20048;-68
2023/05/03 06:48:08;;;;;;;5.53;2.28;;;9.20;99.90;;;;;;5016232;28;20068;-68
2023/05/03 06:50:34;;;;;;;3.13;2.20;;;9.30;99.90;;;;;;5015940;28;20133;-68
2023/05/03 06:53:00;;;;;;;1.58;1.48;;;9.40;99.90;;;;;;5015821;28;20521;-68
2023/05/03 06:55:26;;;;;;;1.90;1.77;;;9.40;99.90;;;;;;5016120;28;20056;-68
2023/05/03 06:57:52;;;;;;;2.17;1.88;;;9.50;99.90;;;;;;4981990;28;20053;-68
2023/05/03 07:00:19;;;;;;;1.98;1.73;;;9.50;99.90;;;;;;4997779;28;20060;-70
2023/05/03 07:02:45;;;;;;;2.33;1.70;;;9.60;99.90;;;;;;4998501;28;20108;-69
2023/05/03 07:05:11;;;;;;;6.63;2.45;;;9.60;99.90;;;;;;5015653;28;20050;-68
2023/05/03 07:07:36;;;;;;;3.75;2.03;;;9.60;99.90;;;;;;5015953;28;20052;-68
2023/05/03 07:10:03;;;;;;;3.20;2.22;;;9.60;99.90;;;;;;5015592;28;20088;-68
2023/05/03 07:12:29;;;;;;;2.10;1.90;;;9.70;99.90;;;;;;4982179;28;20065;-68
2023/05/03 07:14:54;;;;;;;4.10;1.70;;;9.70;99.90;;;;;;5015493;28;20045;-68
2023/05/03 07:17:20;;;;;;;1.70;1.60;;;9.80;99.90;;;;;;5015260;28;20153;-68
2023/05/03 07:19:47;;;;;;;2.58;2.10;;;9.80;99.90;;;;;;5015400;28;20136;-68
2023/05/03 07:22:13;;;;;;;2.47;2.15;;;9.90;99.90;;;;;;5015054;28;20452;-68
2023/05/03 07:24:39;;;;;;;3.50;2.22;;;9.90;99.90;;;;;;5015552;28;20042;-68
2023/05/03 07:27:05;;;;;;;2.08;1.88;;;9.90;99.90;;;;;;5015186;28;20057;-68
2023/05/03 07:29:31;;;;;;;2.67;1.80;;;9.80;99.90;;;;;;4997856;28;20084;-68
2023/05/03 07:31:57;;;;;;;2.70;1.70;;;9.90;99.90;;;;;;4997310;28;20081;-68
2023/05/03 07:34:23;;;;;;;2.72;1.70;;;10.00;99.90;;;;;;4997880;28;20046;-68
2023/05/03 07:36:49;;;;;;;1.92;1.50;;;10.00;99.90;;;;;;5013821;28;20108;-68
2023/05/03 07:39:16;;;;;;;3.85;2.65;;;10.10;99.90;;;;;;5014658;28;20077;-68
2023/05/03 07:41:41;;;;;;;1.88;1.70;;;10.00;99.70;;;;;;5015074;28;20085;-69
2023/05/03 07:44:07;;;;;;;2.22;1.55;;;10.00;99.50;;;;;;5015090;28;20038;-69
2023/05/03 07:46:33;;;;;;;1.92;1.70;;;10.00;99.50;;;;;;5014761;28;20097;-69
2023/05/03 07:49:04;;;;;;;4.07;1.83;;;10.00;98.80;;;;;;5014247;28;20049;-69
2023/05/03 07:51:33;;;;;;;3.45;1.67;;;10.00;98.40;;;;;;5014567;28;20122;-69
2023/05/03 07:53:59;;;;;;;3.38;1.60;;;10.00;98.60;;;;;;5014408;28;20046;-69
2023/05/03 07:56:26;;;;;;;1.90;1.30;;;10.00;98.10;;;;;;5014499;28;20042;-69
2023/05/03 07:58:52;;;;;;;3.50;1.45;;;10.10;98.40;;;;;;5014515;28;20081;-69
2023/05/03 08:01:20;;;;;;;5.47;1.70;;;10.20;98.30;;;;;;4996988;28;20046;-69
2023/05/03 08:03:49;;;;;;;3.42;1.80;;;10.30;97.50;;;;;;4996882;28;20042;-69
2023/05/03 08:06:15;;;;;;;1.75;1.40;;;10.30;98.20;;;;;;4997384;28;20104;-69
2023/05/03 08:08:41;;;;;;;2.92;1.38;;;10.20;97.50;;;;;;5014409;28;20050;-69
2023/05/03 08:11:07;;;;;;;3.95;1.60;;;10.30;98.00;;;;;;4997104;28;20439;-69
2023/05/03 08:13:33;;;;;;;3.45;1.40;;;10.30;97.90;;;;;;5014659;28;20060;-69
2023/05/03 08:15:59;;;;;;;5.35;2.42;;;10.50;98.30;;;;;;4997030;28;20486;-69
2023/05/03 08:18:26;;;;;;;2.00;1.80;;;10.60;97.80;;;;;;5014584;28;20507;-69
2023/05/03 08:20:52;;;;;;;1.92;1.55;;;10.70;97.80;;;;;;5014171;28;20050;-70
2023/05/03 08:23:18;;;;;;;3.53;1.83;;;10.90;97.90;;;;;;5014198;28;20091;-69
2023/05/03 08:25:44;;;;;;;2.53;1.63;;;11.00;98.00;;;;;;5014162;28;20088;-70
2023/05/03 08:28:10;;;;;;;2.50;2.30;;;11.10;97.70;;;;;;5014018;28;20050;-69
2023/05/03 08:30:36;;;;;;;2.42;1.73;;;11.10;97.40;;;;;;5014164;28;20046;-69
2023/05/03 08:33:02;;;;;;;1.95;1.85;;;11.20;96.90;;;;;;5014249;28;20144;-70
2023/05/03 08:35:28;;;;;;;2.53;1.80;;;11.10;96.40;;;;;;5013887;28;20053;-69
2023/05/03 08:37:54;;;;;;;4.40;2.40;;;10.90;94.50;;;;;;5013787;28;20042;-66
2023/05/03 08:40:21;;;;;;;2.63;2.33;;;10.80;95.90;;;;;;4997042;28;20050;-67
2023/05/03 08:42:48;;;;;;;1.58;1.48;;;10.70;94.60;;;;;;5014227;28;20125;-69
2023/05/03 08:45:15;;;;;;;2.65;1.73;;;10.60;95.80;;;;;;5013748;28;20094;-69
2023/05/03 08:47:43;;;;;;;2.47;1.98;;;10.80;96.00;;;;;;5013671;28;20053;-69
2023/05/03 08:50:14;;;;;;;5.05;1.92;;;10.80;96.00;;;;;;5013218;28;20045;-69
2023/05/03 08:52:41;;;;;;;3.28;2.05;;;10.90;96.20;;;;;;5013791;28;20053;-69
2023/05/03 08:55:08;;;;;;;7.80;2.90;;;11.00;96.00;;;;;;5013823;28;20488;-69
2023/05/03 08:57:35;;;;;;;4.40;2.30;;;11.20;96.30;;;;;;5013900;28;20046;-69
2023/05/03 09:00:04;;;;;;;6.65;2.15;;;11.40;96.10;;;;;;5013175;28;20460;-69
2023/05/03 09:02:33;;;;;;;1.90;1.70;;;11.40;95.50;;;;;;4996124;28;20042;-69
2023/05/03 09:04:59;;;;;;;2.05;1.85;;;11.50;95.80;;;;;;4996051;28;20089;-69
2023/05/03 09:07:25;;;;;;;2.45;2.25;;;11.60;95.80;;;;;;5013355;28;20050;-69
2023/05/03 09:09:53;;;;;;;2.20;2.00;;;11.80;95.70;;;;;;5013098;28;20049;-69
2023/05/03 09:12:37;;;;;;;5.50;2.08;;;12.00;95.20;;;;;;4995922;28;20057;-69
2023/05/03 09:15:05;;;;;;;2.50;2.30;;;12.40;94.80;;;;;;5013122;28;20041;-67
2023/05/03 09:17:31;;;;;;;3.03;2.78;;;12.30;94.40;;;;;;5013207;28;20100;-67
2023/05/03 09:19:58;;;;;;;2.50;1.90;;;12.40;94.30;;;;;;5012884;28;20057;-69
2023/05/03 09:22:30;;;;;;;2.20;2.05;;;12.40;94.20;;;;;;4996031;28;20046;-70
2023/05/03 09:24:59;;;;;;;2.23;2.03;;;12.00;94.20;;;;;;5013543;28;20038;-69
2023/05/03 09:27:25;;;;;;;3.53;2.05;;;12.00;94.60;;;;;;5013479;28;20355;-69
2023/05/03 09:29:52;;;;;;;3.15;2.25;;;11.70;93.60;;;;;;5013051;28;20141;-69
2023/05/03 09:32:18;;;;;;;2.90;2.38;;;11.50;94.50;;;;;;4995155;28;20064;-69
2023/05/03 09:34:44;;;;;;;3.45;2.30;;;11.70;94.90;;;;;;5013378;28;20057;-69
2023/05/03 09:37:12;;;;;;;6.75;2.30;;;11.70;95.00;;;;;;5012758;28;20046;-70
2023/05/03 09:39:43;;;;;;;2.50;2.30;;;11.90;94.80;;;;;;5013239;28;20054;-69
2023/05/03 09:42:33;;;;;;;3.63;2.72;;;12.00;94.80;;;;;;5012960;28;20050;-69
2023/05/03 09:45:00;;;;;;;3.78;2.45;;;12.10;94.40;;;;;;4966208;28;20050;-67
2023/05/03 09:47:27;;;;;;;4.05;2.10;;;12.20;94.10;;;;;;5012832;28;20060;-69
2023/05/03 09:49:53;;;;;;;5.07;2.75;;;12.50;94.00;;;;;;5012639;28;20562;-69
2023/05/03 09:52:21;;;;;;;2.60;2.13;;;12.80;93.90;;;;;;5012911;28;20049;-67
2023/05/03 09:54:48;;;;;;;3.28;2.25;;;13.00;94.00;;;;;;5012630;28;20049;-67
2023/05/03 09:57:14;;;;;;;2.53;2.28;;;13.10;94.00;;;;;;5012515;28;20056;-68
2023/05/03 09:59:41;;;;;;;2.63;2.28;;;13.00;93.70;;;;;;5012448;28;20467;-67
2023/05/03 10:02:07;;;;;;;4.28;2.40;;;13.30;94.20;;;;;;5012323;28;20050;-68
2023/05/03 10:04:55;;;;;;;3.33;3.03;;;13.50;93.80;;;;;;5012677;28;20054;-68
2023/05/03 10:07:24;;;;;;;3.55;2.10;;;13.40;93.40;;;;;;5012754;28;20068;-67
2023/05/03 10:09:50;;;;;;;2.63;2.42;;;13.50;94.00;;;;;;5012491;28;20045;-67
2023/05/03 10:12:17;;;;;;;4.15;2.35;;;13.50;93.80;;;;;;5012660;28;20053;-69
2023/05/03 10:14:46;;;;;;;5.47;2.75;;;13.00;93.30;;;;;;5012450;28;20045;-68
2023/05/03 10:17:25;;;;;;;2.78;2.00;;;13.00;93.80;;;;;;5012572;28;20050;-67
2023/05/03 10:19:51;;;;;;;3.17;2.97;;;12.80;93.40;;;;;;5012922;28;20137;-68
2023/05/03 10:22:17;;;;;;;5.05;2.35;;;12.90;93.70;;;;;;4995148;28;20077;-67
2023/05/03 10:25:01;;;;;;;2.28;2.03;;;12.80;93.70;;;;;;5012495;28;20472;-67
2023/05/03 10:27:44;;;;;;;3.10;2.47;;;12.80;93.30;;;;;;5012284;28;20530;-67
2023/05/03 10:30:31;;;;;;;5.70;2.42;;;13.00;92.90;;;;;;5012208;28;20056;-67
2023/05/03 10:32:58;;;;;;;6.55;2.55;;;12.80;92.80;;;;;;4994544;28;20149;-67
2023/05/03 10:35:28;;;;;;;4.63;2.30;;;13.00;93.10;;;;;;5012561;28;20045;-67
2023/05/03 10:37:57;;;;;;;3.20;2.58;;;13.00;92.70;;;;;;5012430;28;20046;-67
2023/05/03 10:40:23;;;;;;;3.22;2.72;;;13.10;93.80;;;;;;5011945;28;20546;-67
2023/05/03 10:42:55;;;;;;;5.05;2.13;;;13.20;93.60;;;;;;5012401;28;20410;-67
2023/05/03 10:45:25;;;;;;;5.93;3.13;;;13.20;93.30;;;;;;5012337;28;20041;-67
2023/05/03 10:48:09;;;;;;;3.03;1.95;;;13.30;93.40;;;;;;5012299;28;20042;-67
2023/05/03 10:50:35;;;;;;;4.50;2.40;;;13.30;91.80;;;;;;5012647;28;20104;-67
2023/05/03 10:53:00;;;;;;;2.05;1.95;;;13.90;92.80;;;;;;5012847;28;20508;-67
2023/05/03 10:55:26;;;;;;;2.67;2.08;;;14.60;93.00;;;;;;5012068;28;20447;-67
2023/05/03 10:57:54;;;;;;;5.65;2.55;;;14.90;92.20;;;;;;5012034;28;20061;-69
2023/05/03 11:00:32;;;;;;;2.70;2.33;;;14.70;92.50;;;;;;4994548;28;20046;-69
2023/05/03 11:03:19;;;;;;;2.92;2.20;;;14.60;92.00;;;;;;5012051;28;20397;-69
2023/05/03 11:05:47;;;;;;;2.95;2.40;;;13.60;89.70;;;;;;5012065;28;20042;-68
2023/05/03 11:08:18;;;;;;;2.45;1.92;;;13.10;91.80;;;;;;5012011;28;20454;-69
2023/05/03 11:10:45;;;;;;;3.42;1.90;;;13.40;92.80;;;;;;4994672;28;20041;-68
2023/05/03 11:13:11;;;;;;;4.50;2.92;;;13.50;91.60;;;;;;5015111;28;20054;-68
2023/05/03 11:15:38;;;;;;;4.15;1.88;;;13.10;92.20;;;;;;5015457;28;20042;-68
2023/05/03 11:18:08;;;;;;;5.18;2.38;;;13.70;93.00;;;;;;5015287;28;20053;-68
2023/05/03 11:20:35;;;;;;;6.15;2.10;;;13.80;91.20;;;;;;5015139;28;20407;-69
2023/05/03 11:23:01;;;;;;;7.18;2.50;;;13.80;91.60;;;;;;5015646;28;20046;-69
2023/05/03 11:25:27;;;;;;;2.33;2.13;;;13.60;90.60;;;;;;5015418;28;20048;-68
2023/05/03 11:27:53;;;;;;;2.20;2.00;;;13.20;91.10;;;;;;5015517;28;20050;-68
2023/05/03 11:30:19;;;;;;;3.22;2.30;;;13.20;92.30;;;;;;5015411;28;20133;-68
2023/05/03 11:32:46;;;;;;;2.05;1.83;;;13.40;92.60;;;;;;5015671;28;20101;-69
2023/05/03 11:35:14;;;;;;;2.58;2.38;;;13.50;92.40;;;;;;5015415;28;20101;-68
2023/05/03 11:37:41;;;;;;;3.17;2.20;;;13.00;90.80;;;;;;5014507;28;20572;-68
2023/05/03 11:40:15;;;;;;;5.57;2.55;;;13.10;92.00;;;;;;5014525;28;20042;-68
2023/05/03 11:42:58;;;;;;;2.72;2.13;;;13.10;92.40;;;;;;4997755;28;20081;-68
2023/05/03 11:45:51;;;;;;;3.58;2.45;;;13.10;92.10;;;;;;5014695;28;20116;-68
2023/05/03 11:48:16;;;;;;;2.22;2.03;;;13.00;91.80;;;;;;5012441;28;20081;-67
2023/05/03 11:50:46;;;;;;;3.90;2.45;;;13.00;92.30;;;;;;5014662;28;20061;-68
2023/05/03 11:53:16;;;;;;;4.25;2.65;;;12.90;92.70;;;;;;5014264;28;20053;-68
2023/05/03 11:55:47;;;;;;;4.15;1.92;;;13.10;92.70;;;;;;5014491;28;20168;-68
2023/05/03 11:58:15;;;;;;;3.53;2.20;;;13.60;92.90;;;;;;4996728;28;20054;-68
2023/05/03 12:00:45;;;;;;;2.67;2.47;;;13.60;92.20;;;;;;5014279;28;20045;-69
2023/05/03 12:03:19;;;;;;;3.50;2.47;;;13.40;90.80;;;;;;5014205;28;20518;-68
2023/05/03 12:05:46;;;;;;;2.92;2.50;;;13.70;91.70;;;;;;5014214;28;20054;-68
2023/05/03 12:08:12;;;;;;;3.33;2.58;;;13.50;91.10;;;;;;5014537;28;20046;-68
2023/05/03 12:10:38;;;;;;;3.40;2.35;;;13.60;91.80;;;;;;4997020;28;20049;-68
2023/05/03 12:13:04;;;;;;;3.00;2.35;;;13.30;91.50;;;;;;5014412;28;20129;-68
2023/05/03 12:15:36;;;;;;;2.90;2.40;;;13.00;91.90;;;;;;4996691;28;20089;-68
2023/05/03 12:18:06;;;;;;;2.42;2.17;;;13.20;92.30;;;;;;5014583;28;20057;-68
2023/05/03 12:20:32;;;;;;;3.17;2.83;;;13.30;92.30;;;;;;5014514;28;20112;-68
2023/05/03 12:23:06;;;;;;;4.78;2.75;;;13.30;91.90;;;;;;4995795;28;20509;-68
2023/05/03 12:25:33;;;;;;;3.28;2.40;;;13.10;91.90;;;;;;5013756;28;20046;-67
2023/05/03 12:28:01;;;;;;;2.65;2.45;;;13.00;92.20;;;;;;5013815;28;20124;-68
2023/05/03 12:30:27;;;;;;;2.63;2.42;;;13.10;92.60;;;;;;5014108;28;20077;-68
2023/05/03 12:32:53;;;;;;;4.28;3.08;;;13.50;92.70;;;;;;4995635;28;20057;-68
2023/05/03 12:35:20;;;;;;;3.22;2.65;;;13.50;91.90;;;;;;5013657;28;20045;-68
2023/05/03 12:37:48;;;;;;;2.72;2.30;;;13.80;92.00;;;;;;5013781;28;20069;-68
2023/05/03 12:40:14;;;;;;;2.88;2.67;;;13.70;91.70;;;;;;4995984;28;20119;-68
2023/05/03 12:42:40;;;;;;;3.30;2.80;;;13.60;91.40;;;;;;5013459;28;20061;-68
2023/05/03 12:45:07;;;;;;;2.90;2.70;;;13.50;91.20;;;;;;5013605;28;20038;-69
2023/05/03 12:47:33;;;;;;;2.55;2.33;;;13.70;91.10;;;;;;4996495;28;20124;-68
2023/05/03 12:49:59;;;;;;;3.47;2.78;;;13.60;91.60;;;;;;5013360;28;20508;-68
2023/05/03 12:52:25;;;;;;;4.15;3.72;;;13.60;91.30;;;;;;5013770;28;20056;-68
2023/05/03 12:54:51;;;;;;;3.40;2.80;;;13.60;90.80;;;;;;5013251;28;20045;-68